Pittsburgh, PA (15227)

1:39 PM EST on February 11, 2016 (GMT -0500)
University of Pittsburgh WeatherSTEM | | Change Station
CLOSE
Current Station
Personal Weather Station
Location: Pittsburgh, PA
Elevation: 1062 ft
Nearby Weather Stations

Elev 1062 ft 40.44 °N, 79.95 °W | Updated 6 minutes ago

Overcast
Overcast
16.1 °F
Feels Like -2 °F
N
23.0
Wind Variable Wind from NW
Gusts 26.0 mph

Today
High -- | Low -- °F
--% Chance of Precip.
Yesterday
High -- | Low -- °F
Precip. -- in
Pressure 30.19 in
Visibility 8.0 miles
Clouds Mostly Cloudy 4200 ft
Overcast 5500 ft
Windchill -2 °F
Dew Point 5 °F
Humidity 63%
Rainfall 0.00 in
Snow Depth Not available.
7:18 AM 5:49 PM
Waxing Crescent, 13% visible
METAR KAGC 111753Z 28016G23KT 8SM BKN042 OVC055 M08/M17 A3011 RMK AO2 SLP224 60000 T10781167 11078 21106 50004
Pressure 30.19 in
Visibility 8.0 miles
Clouds Mostly Cloudy 4200 ft
Overcast 5500 ft
Windchill -2 °F
Dew Point 5 °F
Humidity 63%
Rainfall 0.00 in
Snow Depth Not available.
7:18 AM 5:49 PM
Waxing Crescent, 13% visible
METAR KAGC 111753Z 28016G23KT 8SM BKN042 OVC055 M08/M17 A3011 RMK AO2 SLP224 60000 T10781167 11078 21106 50004

10-Day Weather Forecast

Almanac

Astronomy

Feb. 11, 2016 Rise Set
Actual Time
Civil Twilight
Nautical Twilight
Astronomical Twilight
Moon
Length of Visible Light
Length of Day
Tomorrow will be .
, % of the Moon is Illuminated

Today's Extremes

State Highs State Lows

Community

WunderPhotos

Upload Photos

1,892,122 photos uploaded!

WunderBlog® & News

Nearby

Air Quality

  Air Quality AQ Index Pollutant
Not available.

Snow Depth

Station Depth Elevation

Earthquake Activity

City Distance Mag. Time & Date
Minimum magnitude displayed is 2.5.

Coastal Water Temperatures

Place Temperature

Stations

Nearby Weather Stations

Station Location Temp. Windchill Dew Point Humidity Wind Precip. Elev Updated Type
                   

Watches & Warnings

There are currently no watches in effect.